ココス (キーリング) 諸島 の空港の天気 - METARとTAF

ココス島国際空港 ( YPCC / CCK ) - ココス諸島 ココス (キーリング) 諸島
飛行場実況気象(Metar)
観測時間09/28 06:00 CCT (09/27 23:30 UTC)
風向・風速南東 7m/s
視程10km以上
天気現象
全天の8割程度の雲 雲底高度 2040m
気温26℃
湿度74%
気圧1011hPa
METARYPCC 272330Z AUTO 14014KT 9999 // BKN067 26/21 Q1011 RF00.0/000.0
過去の天気等 Google飛行場航空写真 Wunderground天気予報

過去48時間のMETAR

飛行場予報(TAF)
発表時間: 9/28 05:29 CCT (9/27 22:59 UTC)
予報対象時間: 28日6時 CCT ~ 29日6時 CCT
風向・風速南東 7m/s
視程10km以上
全天の4割程度の雲 雲底高度 760m
TAF YPCC 272259Z 2800/2900 14014KT 9999 SCT025